Terminal Aerodrome Forecast
Issued by NWS

Home | Current Version | Previous Version | Text Only | Print | Product List | Glossary On
Versions: 1 2 3 4 5 6 7 8 9 10 11 12 13 14 15 16 17 18 19 20 21 22 23 24 25
000
FTUS44 KCRP 021100
TAFALI
TAF
KALI 021130Z 0212/0312 35008KT 1 1/2SM -DZ BR OVC003
      TEMPO 0212/0214 1/2SM FG
     FM021800 02008KT 3SM BR OVC004
     FM030100 06005KT 2SM BR OVC003=

USA.gov is the U.S. government's official web portal to all federal, state and local government web resources and services.